Thala, Tunisia
Current Conditions -  °F | °C
As of 8:30 PM on Saturday 25 Oct 2014 (Local Time) from DABS Reporting Station
Clear Clear  
Wind Chill: 59°   Ceiling: Unl
Heat Index: 59°   Visibility: 6mi
Dew Point: 48°   Wind: 0mph
Humidity: 67%   Direction: NA
Pressure: 30.18"   Gusts: NA
Location:  35.58°N, 8.67°E
Report Text: DABS 251930Z 00000KT CAVOK 15/09 Q1022
Loading
Personal Weather Stations






























Interactive Weather Map
Tropical Storm Tracking
New forecast layout! Learn more

10-Day Weather Forecast

Advertisements
Track Severe Weather on mobile